Time,TemperatureF,DewpointF,PressureIn,WindDirection,WindDirectionDegrees,WindSpeedMPH,WindSpeedGustMPH,Humidity,HourlyPrecipIn,Conditions,Clouds,dailyrainin,SoftwareType,DateUTC
2013-10-12 00:01:00,50.7,46.3,30.10,NNW,337,0.0,0.0,85,0.00,,,0.00,WUHU21623XXSP,2013-10-12 04:01:00,
2013-10-12 00:02:00,50.7,46.3,30.10,NNW,337,0.0,0.0,85,0.00,,,0.00,WUHU21623XXSP,2013-10-12 04:02:00,
2013-10-12 00:07:00,50.7,46.3,30.10,NNW,337,0.0,0.0,85,0.00,,,0.00,WUHU21623XXSP,2013-10-12 04:07:00,
2013-10-12 00:12:00,50.9,46.5,30.09,NNW,337,0.0,0.0,85,0.00,,,0.00,WUHU21623XXSP,2013-10-12 04:12:00,
2013-10-12 00:17:00,50.9,46.5,30.09,NNW,337,0.0,0.0,85,0.00,,,0.00,WUHU21623XXSP,2013-10-12 04:17:00,
2013-10-12 00:22:00,51.1,46.7,30.10,NNW,337,0.0,0.0,85,0.00,,,0.00,WUHU21623XXSP,2013-10-12 04:22:00,
2013-10-12 00:27:00,51.1,46.7,30.10,NNW,337,0.0,0.0,85,0.00,,,0.00,WUHU21623XXSP,2013-10-12 04:27:00,
2013-10-12 00:32:00,51.1,46.7,30.10,NNW,337,0.0,0.0,85,0.00,,,0.00,WUHU21623XXSP,2013-10-12 04:32:00,
2013-10-12 00:37:00,51.3,47.2,30.10,NNW,337,0.0,0.0,86,0.00,,,0.00,WUHU21623XXSP,2013-10-12 04:37:00,
2013-10-12 00:42:00,51.4,47.3,30.10,NNW,337,0.0,0.0,86,0.00,,,0.00,WUHU21623XXSP,2013-10-12 04:42:00,
2013-10-12 00:47:00,51.4,47.3,30.10,NNW,337,0.0,0.0,86,0.00,,,0.00,WUHU21623XXSP,2013-10-12 04:47:00,
2013-10-12 00:52:00,51.4,47.3,30.10,NNW,337,0.0,0.0,86,0.00,,,0.00,WUHU21623XXSP,2013-10-12 04:52:00,
2013-10-12 00:57:00,51.4,47.3,30.10,NNW,337,0.0,0.0,86,0.00,,,0.00,WUHU21623XXSP,2013-10-12 04:57:00,
2013-10-12 01:02:00,51.4,47.5,30.10,NNW,337,0.0,0.0,86,0.00,,,0.00,WUHU21623XXSP,2013-10-12 05:02:00,
2013-10-12 01:07:00,51.4,47.5,30.10,NNW,337,0.0,0.0,86,0.00,,,0.00,WUHU21623XXSP,2013-10-12 05:07:00,
2013-10-12 01:12:00,51.6,47.5,30.10,NNW,337,0.0,0.0,86,0.00,,,0.00,WUHU21623XXSP,2013-10-12 05:12:00,
2013-10-12 01:17:00,51.6,47.5,30.10,NNW,337,0.0,0.0,86,0.00,,,0.00,WUHU21623XXSP,2013-10-12 05:17:00,
2013-10-12 01:22:00,51.6,47.5,30.10,NNW,337,0.0,0.0,86,0.00,,,0.00,WUHU21623XXSP,2013-10-12 05:22:00,
2013-10-12 01:27:00,51.6,47.5,30.10,NNW,337,0.0,0.0,86,0.00,,,0.00,WUHU21623XXSP,2013-10-12 05:27:00,
2013-10-12 01:32:00,51.6,47.5,30.10,North,0,0.0,0.0,86,0.00,,,0.00,WUHU21623XXSP,2013-10-12 05:32:00,
2013-10-12 01:37:00,51.8,47.5,30.10,NNW,337,0.0,0.0,86,0.00,,,0.00,WUHU21623XXSP,2013-10-12 05:37:00,
2013-10-12 01:41:00,52.0,47.9,30.10,North,0,0.0,0.0,86,0.00,,,0.00,WUHU21623XXSP,2013-10-12 05:41:00,
2013-10-12 01:46:00,52.0,47.9,30.10,North,0,0.0,0.0,86,0.00,,,0.00,WUHU21623XXSP,2013-10-12 05:46:00,
2013-10-12 01:51:00,52.2,47.9,30.11,North,0,0.0,0.0,86,0.00,,,0.00,WUHU21623XXSP,2013-10-12 05:51:00,
2013-10-12 01:56:00,52.2,48.1,30.11,WNW,292,0.0,0.0,86,0.00,,,0.00,WUHU21623XXSP,2013-10-12 05:56:00,
2013-10-12 02:01:00,52.3,48.2,30.11,WNW,292,0.0,0.0,86,0.00,,,0.00,WUHU21623XXSP,2013-10-12 06:01:00,
2013-10-12 02:06:00,52.3,48.2,30.11,WNW,292,0.0,0.0,86,0.00,,,0.00,WUHU21623XXSP,2013-10-12 06:06:00,
2013-10-12 02:11:00,52.3,48.2,30.11,WNW,292,0.0,0.0,86,0.00,,,0.00,WUHU21623XXSP,2013-10-12 06:11:00,
2013-10-12 02:16:00,52.3,48.2,30.11,NW,315,0.0,0.0,86,0.00,,,0.00,WUHU21623XXSP,2013-10-12 06:16:00,
2013-10-12 02:21:00,52.5,48.4,30.12,NW,315,0.0,0.0,86,0.00,,,0.00,WUHU21623XXSP,2013-10-12 06:21:00,
2013-10-12 02:26:00,52.5,48.4,30.11,NW,315,0.0,0.0,86,0.00,,,0.00,WUHU21623XXSP,2013-10-12 06:26:00,
2013-10-12 02:31:00,52.5,48.4,30.11,NW,315,0.0,0.0,86,0.00,,,0.00,WUHU21623XXSP,2013-10-12 06:31:00,
2013-10-12 02:36:00,52.5,48.4,30.11,NW,315,0.0,0.0,86,0.00,,,0.00,WUHU21623XXSP,2013-10-12 06:36:00,
2013-10-12 02:41:00,52.7,48.4,30.10,NW,315,0.0,0.0,86,0.00,,,0.00,WUHU21623XXSP,2013-10-12 06:41:00,
2013-10-12 02:46:00,52.5,48.4,30.10,North,0,0.0,0.0,86,0.00,,,0.00,WUHU21623XXSP,2013-10-12 06:46:00,
2013-10-12 02:51:00,52.7,48.6,30.11,West,270,0.0,0.0,86,0.00,,,0.00,WUHU21623XXSP,2013-10-12 06:51:00,
2013-10-12 02:56:00,52.7,48.6,30.11,NW,315,0.0,0.0,86,0.00,,,0.00,WUHU21623XXSP,2013-10-12 06:56:00,
2013-10-12 03:01:00,52.7,48.6,30.11,NW,315,0.0,0.0,86,0.00,,,0.00,WUHU21623XXSP,2013-10-12 07:01:00,
2013-10-12 03:06:00,52.7,48.6,30.11,NW,315,0.0,0.0,86,0.00,,,0.00,WUHU21623XXSP,2013-10-12 07:06:00,
2013-10-12 03:11:00,52.7,48.6,30.11,NNW,337,0.0,0.0,86,0.00,,,0.00,WUHU21623XXSP,2013-10-12 07:11:00,
2013-10-12 03:16:00,52.9,48.8,30.11,NNE,22,0.0,0.0,86,0.00,,,0.00,WUHU21623XXSP,2013-10-12 07:16:00,
2013-10-12 03:21:00,52.9,48.8,30.12,NNW,337,0.0,0.0,86,0.00,,,0.00,WUHU21623XXSP,2013-10-12 07:21:00,
2013-10-12 03:26:00,52.9,48.8,30.12,NW,315,0.0,0.0,86,0.00,,,0.00,WUHU21623XXSP,2013-10-12 07:26:00,
2013-10-12 03:31:00,52.9,48.8,30.12,SSW,202,0.0,0.0,86,0.00,,,0.00,WUHU21623XXSP,2013-10-12 07:31:00,
2013-10-12 03:36:00,52.9,48.8,30.12,NW,315,0.0,0.0,86,0.00,,,0.00,WUHU21623XXSP,2013-10-12 07:36:00,
2013-10-12 03:41:00,52.9,48.8,30.11,East,90,0.0,0.0,86,0.00,,,0.00,WUHU21623XXSP,2013-10-12 07:41:00,
2013-10-12 03:46:00,53.1,49.0,30.11,NNE,22,0.0,0.0,86,0.00,,,0.00,WUHU21623XXSP,2013-10-12 07:46:00,
2013-10-12 03:51:00,53.1,49.0,30.12,NW,315,0.0,0.0,86,0.00,,,0.00,WUHU21623XXSP,2013-10-12 07:51:00,
2013-10-12 03:56:00,53.2,49.1,30.12,North,0,0.0,0.0,86,0.00,,,0.00,WUHU21623XXSP,2013-10-12 07:56:00,
2013-10-12 04:01:00,53.2,49.1,30.12,WNW,292,0.0,0.0,86,0.00,,,0.00,WUHU21623XXSP,2013-10-12 08:01:00,
2013-10-12 04:06:00,53.2,49.1,30.12,SE,135,0.0,0.0,86,0.00,,,0.00,WUHU21623XXSP,2013-10-12 08:06:00,
2013-10-12 04:11:00,53.2,49.1,30.12,West,270,0.0,0.0,86,0.00,,,0.00,WUHU21623XXSP,2013-10-12 08:11:00,
2013-10-12 04:16:00,53.4,49.3,30.12,NNW,337,0.0,0.0,86,0.00,,,0.00,WUHU21623XXSP,2013-10-12 08:16:00,
2013-10-12 04:21:00,53.4,49.3,30.12,WNW,292,0.0,0.0,86,0.00,,,0.00,WUHU21623XXSP,2013-10-12 08:21:00,
2013-10-12 04:26:00,53.6,49.5,30.12,WSW,247,0.0,0.0,86,0.00,,,0.00,WUHU21623XXSP,2013-10-12 08:26:00,
2013-10-12 04:31:00,53.8,49.7,30.12,NW,315,0.0,0.0,86,0.00,,,0.00,WUHU21623XXSP,2013-10-12 08:31:00,
2013-10-12 04:36:00,53.8,49.7,30.12,WSW,247,0.0,0.0,86,0.00,,,0.00,WUHU21623XXSP,2013-10-12 08:36:00,
2013-10-12 04:41:00,53.8,49.7,30.13,WSW,247,0.0,0.0,87,0.00,,,0.00,WUHU21623XXSP,2013-10-12 08:41:00,
2013-10-12 04:46:00,53.8,50.0,30.13,NNE,22,0.0,0.0,87,0.00,,,0.00,WUHU21623XXSP,2013-10-12 08:46:00,
2013-10-12 04:51:00,54.0,50.1,30.13,West,270,0.0,0.0,87,0.00,,,0.00,WUHU21623XXSP,2013-10-12 08:51:00,
2013-10-12 04:56:00,54.1,50.3,30.13,WSW,247,0.0,0.0,87,0.00,,,0.00,WUHU21623XXSP,2013-10-12 08:56:00,
2013-10-12 05:01:00,54.1,50.3,30.14,West,270,0.0,0.0,87,0.00,,,0.00,WUHU21623XXSP,2013-10-12 09:01:00,
2013-10-12 05:06:00,54.1,50.3,30.14,West,270,0.0,0.0,87,0.00,,,0.00,WUHU21623XXSP,2013-10-12 09:06:00,
2013-10-12 05:11:00,54.1,50.3,30.14,NNW,337,0.0,0.0,87,0.00,,,0.00,WUHU21623XXSP,2013-10-12 09:11:00,
2013-10-12 05:16:00,54.1,50.3,30.14,NNW,337,0.0,0.0,87,0.00,,,0.00,WUHU21623XXSP,2013-10-12 09:16:00,
2013-10-12 05:21:00,54.3,50.5,30.14,ENE,67,0.0,0.0,87,0.00,,,0.00,WUHU21623XXSP,2013-10-12 09:21:00,
2013-10-12 05:26:00,54.3,50.5,30.14,West,270,0.0,0.0,87,0.00,,,0.00,WUHU21623XXSP,2013-10-12 09:26:00,
2013-10-12 05:31:00,54.3,50.5,30.14,NNE,22,0.0,0.0,87,0.00,,,0.00,WUHU21623XXSP,2013-10-12 09:31:00,
2013-10-12 05:36:00,54.3,50.5,30.14,SW,225,0.0,0.0,87,0.00,,,0.00,WUHU21623XXSP,2013-10-12 09:36:00,
2013-10-12 05:41:00,54.3,50.5,30.14,ESE,112,0.0,0.0,87,0.00,,,0.00,WUHU21623XXSP,2013-10-12 09:41:00,
2013-10-12 05:46:00,54.3,50.5,30.14,NNE,22,0.0,0.0,87,0.00,,,0.00,WUHU21623XXSP,2013-10-12 09:46:00,
2013-10-12 05:51:00,54.3,50.5,30.14,NW,315,0.0,0.0,87,0.00,,,0.00,WUHU21623XXSP,2013-10-12 09:51:00,
2013-10-12 05:56:00,54.3,50.5,30.14,NNW,337,0.0,0.0,87,0.00,,,0.00,WUHU21623XXSP,2013-10-12 09:56:00,
2013-10-12 06:01:00,54.3,50.5,30.14,West,270,0.0,0.0,87,0.00,,,0.00,WUHU21623XXSP,2013-10-12 10:01:00,
2013-10-12 06:07:00,54.3,50.5,30.14,WNW,292,0.0,0.0,87,0.00,,,0.00,WUHU21623XXSP,2013-10-12 10:07:00,
2013-10-12 06:12:00,54.3,50.5,30.15,South,180,0.0,0.0,87,0.00,,,0.00,WUHU21623XXSP,2013-10-12 10:12:00,
2013-10-12 06:17:00,54.3,50.5,30.15,West,270,0.0,0.0,87,0.00,,,0.00,WUHU21623XXSP,2013-10-12 10:17:00,
2013-10-12 06:22:00,54.3,50.5,30.15,SSW,202,0.0,0.0,87,0.00,,,0.00,WUHU21623XXSP,2013-10-12 10:22:00,
2013-10-12 06:27:00,54.3,50.5,30.15,WSW,247,0.0,0.0,87,0.00,,,0.00,WUHU21623XXSP,2013-10-12 10:27:00,
2013-10-12 06:32:00,54.3,50.5,30.15,SSE,157,0.0,0.0,87,0.00,,,0.00,WUHU21623XXSP,2013-10-12 10:32:00,
2013-10-12 06:37:00,54.3,50.5,30.16,ENE,67,0.0,0.0,87,0.00,,,0.00,WUHU21623XXSP,2013-10-12 10:37:00,
2013-10-12 06:42:00,54.3,50.5,30.15,ENE,67,0.0,0.0,87,0.00,,,0.00,WUHU21623XXSP,2013-10-12 10:42:00,
2013-10-12 06:47:00,54.5,50.7,30.16,SW,225,0.0,0.0,87,0.00,,,0.00,WUHU21623XXSP,2013-10-12 10:47:00,
2013-10-12 06:52:00,54.5,50.7,30.16,West,270,0.0,0.0,87,0.00,,,0.00,WUHU21623XXSP,2013-10-12 10:52:00,
2013-10-12 06:57:00,54.5,50.7,30.16,WNW,292,0.0,0.0,87,0.00,,,0.00,WUHU21623XXSP,2013-10-12 10:57:00,
2013-10-12 07:02:00,54.5,50.7,30.16,North,0,0.0,0.0,87,0.00,,,0.00,WUHU21623XXSP,2013-10-12 11:02:00,
2013-10-12 07:07:00,54.5,50.7,30.17,West,270,0.0,0.0,87,0.00,,,0.00,WUHU21623XXSP,2013-10-12 11:07:00,
2013-10-12 07:12:00,54.5,50.8,30.17,WNW,292,0.0,0.0,87,0.00,,,0.00,WUHU21623XXSP,2013-10-12 11:12:00,
2013-10-12 07:17:00,54.7,50.7,30.18,ESE,112,0.0,0.0,87,0.00,,,0.00,WUHU21623XXSP,2013-10-12 11:17:00,
2013-10-12 07:22:00,54.7,51.2,30.17,SE,135,0.0,0.0,88,0.00,,,0.00,WUHU21623XXSP,2013-10-12 11:22:00,
2013-10-12 07:27:00,55.0,51.3,30.18,SSW,202,0.0,0.0,88,0.00,,,0.00,WUHU21623XXSP,2013-10-12 11:27:00,
2013-10-12 07:32:00,55.0,51.5,30.18,NE,45,0.0,0.0,88,0.00,,,0.00,WUHU21623XXSP,2013-10-12 11:32:00,
2013-10-12 07:37:00,55.2,51.7,30.18,SE,135,0.0,0.0,88,0.00,,,0.00,WUHU21623XXSP,2013-10-12 11:37:00,
2013-10-12 07:42:00,55.2,51.7,30.18,WNW,292,0.0,0.0,88,0.00,,,0.00,WUHU21623XXSP,2013-10-12 11:42:00,
2013-10-12 07:47:00,55.6,52.1,30.18,SSE,157,0.0,0.0,88,0.00,,,0.00,WUHU21623XXSP,2013-10-12 11:47:00,
2013-10-12 07:52:00,55.9,52.7,30.19,SSW,202,0.0,0.0,89,0.00,,,0.00,WUHU21623XXSP,2013-10-12 11:52:00,
2013-10-12 07:57:00,56.1,52.9,30.19,NW,315,0.0,0.0,89,0.00,,,0.00,WUHU21623XXSP,2013-10-12 11:57:00,
2013-10-12 08:02:00,56.5,53.3,30.20,SSW,202,0.0,0.0,89,0.00,,,0.00,WUHU21623XXSP,2013-10-12 12:02:00,
2013-10-12 08:07:00,56.8,53.6,30.20,ESE,112,0.0,0.0,89,0.00,,,0.00,WUHU21623XXSP,2013-10-12 12:07:00,
2013-10-12 08:12:00,56.8,53.6,30.20,NE,45,0.0,0.0,89,0.00,,,0.00,WUHU21623XXSP,2013-10-12 12:12:00,
2013-10-12 08:17:00,57.0,53.8,30.20,ENE,67,1.6,1.6,89,0.00,,,0.00,WUHU21623XXSP,2013-10-12 12:17:00,
2013-10-12 08:22:00,57.4,54.2,30.20,NNW,337,0.0,1.6,89,0.00,,,0.00,WUHU21623XXSP,2013-10-12 12:22:00,
2013-10-12 08:27:00,57.6,54.4,30.20,East,90,0.0,1.6,90,0.00,,,0.00,WUHU21623XXSP,2013-10-12 12:27:00,
2013-10-12 08:32:00,57.9,55.0,30.21,North,0,0.0,0.0,90,0.00,,,0.00,WUHU21623XXSP,2013-10-12 12:32:00,
2013-10-12 08:37:00,58.6,55.4,30.21,SE,135,0.0,0.0,90,0.00,,,0.00,WUHU21623XXSP,2013-10-12 12:37:00,
2013-10-12 08:42:00,59.5,56.7,30.22,North,0,0.7,0.7,90,0.00,,,0.00,WUHU21623XXSP,2013-10-12 12:42:00,
2013-10-12 08:47:00,60.1,56.8,30.21,North,0,0.7,0.7,90,0.00,,,0.00,WUHU21623XXSP,2013-10-12 12:47:00,
2013-10-12 08:52:00,60.4,57.2,30.21,East,90,0.0,0.7,89,0.00,,,0.00,WUHU21623XXSP,2013-10-12 12:52:00,
2013-10-12 08:57:00,60.6,57.4,30.21,SE,135,0.0,0.0,88,0.00,,,0.00,WUHU21623XXSP,2013-10-12 12:57:00,
2013-10-12 09:02:00,61.0,57.4,30.22,NNW,337,3.1,3.1,88,0.00,,,0.00,WUHU21623XXSP,2013-10-12 13:02:00,
2013-10-12 09:07:00,61.5,58.0,30.22,ENE,67,0.0,6.3,88,0.00,,,0.00,WUHU21623XXSP,2013-10-12 13:07:00,
2013-10-12 09:12:00,61.7,57.8,30.22,ESE,112,2.0,6.3,87,0.00,,,0.00,WUHU21623XXSP,2013-10-12 13:12:00,
2013-10-12 09:17:00,61.9,57.7,30.22,NE,45,0.0,5.1,86,0.00,,,0.00,WUHU21623XXSP,2013-10-12 13:17:00,
2013-10-12 09:22:00,62.1,57.5,30.22,ENE,67,0.0,5.1,85,0.00,,,0.00,WUHU21623XXSP,2013-10-12 13:22:00,
2013-10-12 09:27:00,62.1,57.5,30.23,West,270,0.0,4.7,85,0.00,,,0.00,WUHU21623XXSP,2013-10-12 13:27:00,
2013-10-12 09:32:00,62.2,57.7,30.22,ESE,112,2.0,4.7,85,0.00,,,0.00,WUHU21623XXSP,2013-10-12 13:32:00,
2013-10-12 09:37:00,62.4,57.7,30.23,NNE,22,5.8,5.8,85,0.00,,,0.00,WUHU21623XXSP,2013-10-12 13:37:00,
2013-10-12 09:42:00,62.8,58.2,30.23,North,0,0.0,5.8,85,0.00,,,0.00,WUHU21623XXSP,2013-10-12 13:42:00,
2013-10-12 09:47:00,63.1,58.2,30.23,ESE,112,0.0,3.4,84,0.00,,,0.00,WUHU21623XXSP,2013-10-12 13:47:00,
2013-10-12 09:52:00,64.0,58.7,30.24,SE,135,0.9,2.9,83,0.00,,,0.00,WUHU21623XXSP,2013-10-12 13:52:00,
2013-10-12 09:57:00,64.6,58.9,30.23,ENE,67,2.0,4.0,82,0.00,,,0.00,WUHU21623XXSP,2013-10-12 13:57:00,
2013-10-12 10:02:00,65.1,59.1,30.24,ENE,67,0.0,4.0,81,0.00,,,0.00,WUHU21623XXSP,2013-10-12 14:02:00,
2013-10-12 10:07:00,66.4,59.7,30.23,ENE,67,2.9,2.9,79,0.00,,,0.00,WUHU21623XXSP,2013-10-12 14:07:00,
2013-10-12 10:12:00,66.7,59.7,30.23,West,270,0.0,2.9,78,0.00,,,0.00,WUHU21623XXSP,2013-10-12 14:12:00,
2013-10-12 10:17:00,66.6,59.1,30.24,South,180,0.0,0.0,77,0.00,,,0.00,WUHU21623XXSP,2013-10-12 14:17:00,
2013-10-12 10:22:00,66.2,58.4,30.24,South,180,4.7,4.7,76,0.00,,,0.00,WUHU21623XXSP,2013-10-12 14:22:00,
2013-10-12 10:27:00,66.2,58.8,30.24,SW,225,5.8,5.8,77,0.00,,,0.00,WUHU21623XXSP,2013-10-12 14:27:00,
2013-10-12 10:32:00,66.7,58.9,30.24,NNE,22,2.7,5.8,76,0.00,,,0.00,WUHU21623XXSP,2013-10-12 14:32:00,
2013-10-12 10:37:00,66.7,58.7,30.25,South,180,0.0,5.8,75,0.00,,,0.00,WUHU21623XXSP,2013-10-12 14:37:00,
2013-10-12 10:42:00,66.4,58.2,30.25,North,0,1.3,1.6,75,0.00,,,0.00,WUHU21623XXSP,2013-10-12 14:42:00,
2013-10-12 10:47:00,66.0,58.2,30.25,East,90,2.7,2.7,75,0.00,,,0.00,WUHU21623XXSP,2013-10-12 14:47:00,
2013-10-12 10:52:00,65.3,57.1,30.25,SW,225,11.2,11.2,75,0.00,,,0.00,WUHU21623XXSP,2013-10-12 14:52:00,
2013-10-12 10:57:00,64.6,56.5,30.25,NNE,22,7.6,11.2,75,0.00,,,0.00,WUHU21623XXSP,2013-10-12 14:57:00,
2013-10-12 11:02:00,64.2,56.5,30.25,North,0,2.5,11.2,76,0.00,,,0.00,WUHU21623XXSP,2013-10-12 15:02:00,
2013-10-12 11:07:00,64.0,56.3,30.25,SE,135,0.0,2.9,76,0.00,,,0.00,WUHU21623XXSP,2013-10-12 15:07:00,
2013-10-12 11:12:00,63.7,55.9,30.25,SE,135,0.0,2.9,76,0.00,,,0.00,WUHU21623XXSP,2013-10-12 15:12:00,
2013-10-12 11:17:00,63.5,55.8,30.25,North,0,0.0,0.0,77,0.00,,,0.00,WUHU21623XXSP,2013-10-12 15:17:00,
2013-10-12 11:22:00,63.1,55.8,30.26,NE,45,0.0,2.5,77,0.00,,,0.00,WUHU21623XXSP,2013-10-12 15:22:00,
2013-10-12 11:27:00,63.0,55.6,30.26,SE,135,0.0,2.5,77,0.00,,,0.00,WUHU21623XXSP,2013-10-12 15:27:00,
2013-10-12 11:32:00,62.8,55.8,30.26,North,0,0.0,0.0,78,0.00,,,0.00,WUHU21623XXSP,2013-10-12 15:32:00,
2013-10-12 11:37:00,62.4,55.2,30.27,SE,135,0.0,0.0,77,0.00,,,0.00,WUHU21623XXSP,2013-10-12 15:37:00,
2013-10-12 11:42:00,62.2,55.3,30.27,NE,45,3.4,3.4,78,0.00,,,0.00,WUHU21623XXSP,2013-10-12 15:42:00,
2013-10-12 11:47:00,61.9,54.9,30.27,SSE,157,0.0,3.4,78,0.00,,,0.00,WUHU21623XXSP,2013-10-12 15:47:00,
2013-10-12 11:52:00,62.1,55.3,30.26,SE,135,1.1,3.4,79,0.00,,,0.00,WUHU21623XXSP,2013-10-12 15:52:00,
2013-10-12 11:57:00,61.9,55.3,30.26,NE,45,0.0,1.1,79,0.00,,,0.00,WUHU21623XXSP,2013-10-12 15:57:00,
2013-10-12 12:02:00,61.7,55.1,30.27,NW,315,0.0,0.0,79,0.00,,,0.00,WUHU21623XXSP,2013-10-12 16:02:00,
2013-10-12 12:07:00,61.5,55.0,30.27,SW,225,1.1,4.7,79,0.00,,,0.00,WUHU21623XXSP,2013-10-12 16:07:00,
2013-10-12 12:12:00,61.5,55.3,30.27,NNW,337,2.2,2.2,80,0.00,,,0.00,WUHU21623XXSP,2013-10-12 16:12:00,
2013-10-12 12:17:00,61.3,55.2,30.27,SSE,157,0.0,2.2,80,0.00,,,0.00,WUHU21623XXSP,2013-10-12 16:17:00,
2013-10-12 12:22:00,61.3,55.2,30.26,NE,45,0.0,0.0,80,0.00,,,0.00,WUHU21623XXSP,2013-10-12 16:22:00,
2013-10-12 12:27:00,61.3,55.2,30.26,NNE,22,0.0,2.5,80,0.00,,,0.00,WUHU21623XXSP,2013-10-12 16:27:00,
2013-10-12 12:32:00,61.2,55.0,30.26,NE,45,2.2,5.1,80,0.00,,,0.00,WUHU21623XXSP,2013-10-12 16:32:00,
2013-10-12 12:37:00,61.0,55.2,30.26,SSE,157,0.0,5.1,81,0.00,,,0.00,WUHU21623XXSP,2013-10-12 16:37:00,
2013-10-12 12:42:00,61.0,55.2,30.26,South,180,2.0,5.4,81,0.00,,,0.00,WUHU21623XXSP,2013-10-12 16:42:00,
2013-10-12 12:47:00,60.6,54.8,30.26,NNW,337,0.0,5.4,81,0.00,,,0.00,WUHU21623XXSP,2013-10-12 16:47:00,
2013-10-12 12:52:00,60.6,54.8,30.26,SSE,157,3.8,3.8,81,0.00,,,0.00,WUHU21623XXSP,2013-10-12 16:52:00,
2013-10-12 12:57:00,60.6,55.1,30.26,ESE,112,3.4,3.8,82,0.00,,,0.00,WUHU21623XXSP,2013-10-12 16:57:00,
2013-10-12 13:02:00,60.6,55.1,30.26,SSE,157,0.0,3.4,82,0.00,,,0.00,WUHU21623XXSP,2013-10-12 17:02:00,
2013-10-12 13:07:00,60.6,55.1,30.26,West,270,2.5,2.5,82,0.00,,,0.00,WUHU21623XXSP,2013-10-12 17:07:00,
2013-10-12 13:12:00,60.4,55.0,30.26,SE,135,4.7,4.7,82,0.00,,,0.00,WUHU21623XXSP,2013-10-12 17:12:00,
2013-10-12 13:17:00,60.4,55.0,30.26,East,90,1.3,4.7,82,0.00,,,0.00,WUHU21623XXSP,2013-10-12 17:17:00,
2013-10-12 13:22:00,60.4,55.0,30.26,East,90,2.2,3.8,82,0.00,,,0.00,WUHU21623XXSP,2013-10-12 17:22:00,
2013-10-12 13:27:00,60.4,55.0,30.26,NNE,22,2.0,2.2,82,0.00,,,0.00,WUHU21623XXSP,2013-10-12 17:27:00,
2013-10-12 13:32:00,60.3,54.8,30.27,NNE,22,2.5,2.5,82,0.00,,,0.00,WUHU21623XXSP,2013-10-12 17:32:00,
2013-10-12 13:37:00,60.3,54.8,30.26,NW,315,0.0,2.5,82,0.00,,,0.00,WUHU21623XXSP,2013-10-12 17:37:00,
2013-10-12 13:42:00,60.3,54.8,30.26,ESE,112,1.3,9.2,82,0.00,,,0.00,WUHU21623XXSP,2013-10-12 17:42:00,
2013-10-12 13:47:00,60.4,55.0,30.27,SW,225,0.0,9.2,82,0.00,,,0.00,WUHU21623XXSP,2013-10-12 17:47:00,
2013-10-12 13:52:00,60.4,55.0,30.26,South,180,0.0,0.0,82,0.00,,,0.00,WUHU21623XXSP,2013-10-12 17:52:00,
2013-10-12 13:57:00,60.3,54.8,30.26,East,90,2.7,2.7,82,0.00,,,0.00,WUHU21623XXSP,2013-10-12 17:57:00,
2013-10-12 14:02:00,60.1,54.6,30.26,SE,135,0.0,2.7,82,0.00,,,0.00,WUHU21623XXSP,2013-10-12 18:02:00,
2013-10-12 14:07:00,59.9,54.4,30.26,South,180,1.1,2.2,82,0.00,,,0.00,WUHU21623XXSP,2013-10-12 18:07:00,
2013-10-12 14:12:00,59.7,54.6,30.26,ENE,67,0.0,1.1,83,0.00,,,0.00,WUHU21623XXSP,2013-10-12 18:12:00,
2013-10-12 14:17:00,59.9,54.8,30.26,ENE,67,0.0,0.0,83,0.00,,,0.00,WUHU21623XXSP,2013-10-12 18:17:00,
2013-10-12 14:22:00,59.9,54.8,30.27,ESE,112,3.1,3.1,83,0.00,,,0.00,WUHU21623XXSP,2013-10-12 18:22:00,
2013-10-12 14:27:00,59.9,54.8,30.26,East,90,0.0,3.1,83,0.00,,,0.00,WUHU21623XXSP,2013-10-12 18:27:00,
2013-10-12 14:32:00,59.7,54.6,30.26,East,90,3.1,3.1,83,0.00,,,0.00,WUHU21623XXSP,2013-10-12 18:32:00,
2013-10-12 14:37:00,59.9,54.8,30.27,SE,135,0.0,3.1,83,0.00,,,0.00,WUHU21623XXSP,2013-10-12 18:37:00,
2013-10-12 14:42:00,59.7,54.6,30.27,SSW,202,1.1,1.1,83,0.00,,,0.00,WUHU21623XXSP,2013-10-12 18:42:00,
2013-10-12 14:47:00,59.5,54.4,30.27,SW,225,0.0,1.1,83,0.00,,,0.00,WUHU21623XXSP,2013-10-12 18:47:00,
2013-10-12 14:52:00,59.5,54.4,30.27,North,0,2.5,2.5,83,0.00,,,0.00,WUHU21623XXSP,2013-10-12 18:52:00,
2013-10-12 14:57:00,59.5,54.4,30.28,WSW,247,0.9,2.5,83,0.00,,,0.00,WUHU21623XXSP,2013-10-12 18:57:00,
2013-10-12 15:02:00,59.5,54.4,30.27,ESE,112,0.0,2.2,83,0.00,,,0.00,WUHU21623XXSP,2013-10-12 19:02:00,
2013-10-12 15:07:00,59.4,54.5,30.28,SSE,157,0.0,2.2,84,0.00,,,0.00,WUHU21623XXSP,2013-10-12 19:07:00,
2013-10-12 15:12:00,59.2,54.4,30.27,NE,45,0.0,0.0,84,0.00,,,0.00,WUHU21623XXSP,2013-10-12 19:12:00,
2013-10-12 15:17:00,59.2,54.0,30.28,ENE,67,0.0,1.1,83,0.00,,,0.00,WUHU21623XXSP,2013-10-12 19:17:00,
2013-10-12 15:22:00,59.2,54.0,30.28,ENE,67,3.1,3.1,83,0.00,,,0.00,WUHU21623XXSP,2013-10-12 19:22:00,
2013-10-12 15:27:00,58.8,53.7,30.27,West,270,0.0,3.1,83,0.00,,,0.00,WUHU21623XXSP,2013-10-12 19:27:00,
2013-10-12 15:32:00,58.8,53.7,30.28,ESE,112,1.3,2.7,83,0.00,,,0.00,WUHU21623XXSP,2013-10-12 19:32:00,
2013-10-12 15:37:00,58.8,53.7,30.28,NNE,22,0.0,2.7,83,0.00,,,0.00,WUHU21623XXSP,2013-10-12 19:37:00,
2013-10-12 15:42:00,58.8,53.7,30.28,East,90,0.0,1.3,83,0.00,,,0.00,WUHU21623XXSP,2013-10-12 19:42:00,
2013-10-12 15:47:00,58.8,53.7,30.28,North,0,0.0,1.1,83,0.00,,,0.00,WUHU21623XXSP,2013-10-12 19:47:00,
2013-10-12 15:52:00,58.8,53.7,30.28,SSE,157,1.6,1.6,83,0.00,,,0.00,WUHU21623XXSP,2013-10-12 19:52:00,
2013-10-12 15:57:00,58.8,53.7,30.28,East,90,1.3,1.6,83,0.00,,,0.00,WUHU21623XXSP,2013-10-12 19:57:00,
2013-10-12 16:02:00,58.6,53.5,30.28,ESE,112,0.9,3.6,83,0.00,,,0.00,WUHU21623XXSP,2013-10-12 20:02:00,
2013-10-12 16:07:00,58.5,53.3,30.28,SE,135,0.0,3.6,83,0.00,,,0.00,WUHU21623XXSP,2013-10-12 20:07:00,
2013-10-12 16:12:00,58.5,53.3,30.28,ESE,112,0.0,2.5,83,0.00,,,0.00,WUHU21623XXSP,2013-10-12 20:12:00,
2013-10-12 16:17:00,58.6,53.5,30.28,East,90,0.0,0.0,83,0.00,,,0.00,WUHU21623XXSP,2013-10-12 20:17:00,
2013-10-12 16:22:00,58.6,53.5,30.28,NNE,22,0.0,0.0,83,0.00,,,0.00,WUHU21623XXSP,2013-10-12 20:22:00,
2013-10-12 16:27:00,58.6,53.5,30.28,NNE,22,0.0,0.0,83,0.00,,,0.00,WUHU21623XXSP,2013-10-12 20:27:00,
2013-10-12 16:32:00,58.6,53.5,30.29,NNW,337,0.0,4.7,83,0.00,,,0.00,WUHU21623XXSP,2013-10-12 20:32:00,
2013-10-12 16:37:00,58.6,53.5,30.28,NNW,337,1.6,4.7,83,0.00,,,0.00,WUHU21623XXSP,2013-10-12 20:37:00,
2013-10-12 16:42:00,58.6,53.5,30.29,SW,225,0.0,1.6,83,0.00,,,0.00,WUHU21623XXSP,2013-10-12 20:42:00,
2013-10-12 16:47:00,58.6,53.5,30.29,East,90,0.0,0.0,83,0.00,,,0.00,WUHU21623XXSP,2013-10-12 20:47:00,
2013-10-12 16:52:00,58.6,53.5,30.29,East,90,0.0,0.0,83,0.00,,,0.00,WUHU21623XXSP,2013-10-12 20:52:00,
2013-10-12 16:57:00,58.5,53.3,30.29,ESE,112,0.0,0.0,83,0.00,,,0.00,WUHU21623XXSP,2013-10-12 20:57:00,
2013-10-12 17:02:00,58.3,53.3,30.29,WSW,247,0.0,0.0,83,0.00,,,0.00,WUHU21623XXSP,2013-10-12 21:02:00,
2013-10-12 17:07:00,58.3,53.1,30.30,South,180,0.0,2.0,83,0.00,,,0.00,WUHU21623XXSP,2013-10-12 21:07:00,
2013-10-12 17:12:00,58.1,53.0,30.29,ENE,67,0.0,2.0,83,0.00,,,0.00,WUHU21623XXSP,2013-10-12 21:12:00,
2013-10-12 17:17:00,57.9,52.8,30.29,ESE,112,0.0,2.0,83,0.00,,,0.00,WUHU21623XXSP,2013-10-12 21:17:00,
2013-10-12 17:22:00,57.9,52.8,30.30,SSE,157,0.0,2.0,83,0.00,,,0.00,WUHU21623XXSP,2013-10-12 21:22:00,
2013-10-12 17:27:00,57.9,52.8,30.30,East,90,0.0,0.0,83,0.00,,,0.00,WUHU21623XXSP,2013-10-12 21:27:00,
2013-10-12 17:32:00,57.7,52.6,30.30,SSE,157,1.6,1.6,83,0.00,,,0.00,WUHU21623XXSP,2013-10-12 21:32:00,
2013-10-12 17:37:00,57.9,52.8,30.30,NNW,337,2.7,2.7,83,0.00,,,0.00,WUHU21623XXSP,2013-10-12 21:37:00,
2013-10-12 17:42:00,57.7,52.6,30.30,ENE,67,0.0,2.7,83,0.00,,,0.00,WUHU21623XXSP,2013-10-12 21:42:00,
2013-10-12 17:47:00,57.7,52.6,30.30,SE,135,2.0,2.0,83,0.00,,,0.00,WUHU21623XXSP,2013-10-12 21:47:00,
2013-10-12 17:52:00,57.7,52.6,30.30,ENE,67,2.7,2.7,83,0.00,,,0.00,WUHU21623XXSP,2013-10-12 21:52:00,
2013-10-12 17:57:00,57.7,52.6,30.30,ENE,67,0.0,2.7,83,0.00,,,0.00,WUHU21623XXSP,2013-10-12 21:57:00,
2013-10-12 18:02:00,57.7,52.6,30.30,NNW,337,0.0,0.0,83,0.00,,,0.00,WUHU21623XXSP,2013-10-12 22:02:00,
2013-10-12 18:07:00,57.6,52.4,30.30,South,180,1.3,1.3,83,0.00,,,0.00,WUHU21623XXSP,2013-10-12 22:07:00,
2013-10-12 18:12:00,57.4,52.2,30.30,ENE,67,0.0,1.3,83,0.00,,,0.00,WUHU21623XXSP,2013-10-12 22:12:00,
2013-10-12 18:17:00,57.4,52.2,30.30,NNE,22,0.0,0.0,83,0.00,,,0.00,WUHU21623XXSP,2013-10-12 22:17:00,
2013-10-12 18:22:00,57.4,52.2,30.30,SE,135,0.0,0.0,83,0.00,,,0.00,WUHU21623XXSP,2013-10-12 22:22:00,
2013-10-12 18:27:00,57.2,52.1,30.30,ESE,112,0.0,0.0,83,0.00,,,0.00,WUHU21623XXSP,2013-10-12 22:27:00,
2013-10-12 18:32:00,57.4,52.2,30.30,SE,135,0.0,0.0,83,0.00,,,0.00,WUHU21623XXSP,2013-10-12 22:32:00,
2013-10-12 18:37:00,57.0,51.9,30.29,SE,135,0.0,1.3,83,0.00,,,0.00,WUHU21623XXSP,2013-10-12 22:37:00,
2013-10-12 18:42:00,57.0,51.9,30.30,ENE,67,0.0,3.8,83,0.00,,,0.00,WUHU21623XXSP,2013-10-12 22:42:00,
2013-10-12 18:47:00,57.0,51.9,30.30,SSW,202,2.0,3.8,83,0.00,,,0.00,WUHU21623XXSP,2013-10-12 22:47:00,
2013-10-12 18:52:00,57.0,51.5,30.30,SSW,202,1.6,2.0,82,0.00,,,0.00,WUHU21623XXSP,2013-10-12 22:52:00,
2013-10-12 18:57:00,57.0,51.5,30.30,ESE,112,0.0,1.6,82,0.00,,,0.00,WUHU21623XXSP,2013-10-12 22:57:00,
2013-10-12 19:02:00,57.0,51.5,30.31,East,90,1.6,1.6,82,0.00,,,0.00,WUHU21623XXSP,2013-10-12 23:02:00,
2013-10-12 19:07:00,57.0,51.5,30.30,ESE,112,0.0,1.6,82,0.00,,,0.00,WUHU21623XXSP,2013-10-12 23:07:00,
2013-10-12 19:12:00,57.0,51.5,30.31,SE,135,0.0,0.0,82,0.00,,,0.00,WUHU21623XXSP,2013-10-12 23:12:00,
2013-10-12 19:17:00,57.0,51.5,30.31,SSE,157,1.6,1.6,82,0.00,,,0.00,WUHU21623XXSP,2013-10-12 23:17:00,
2013-10-12 19:22:00,56.8,51.4,30.31,North,0,0.0,1.6,82,0.00,,,0.00,WUHU21623XXSP,2013-10-12 23:22:00,
2013-10-12 19:27:00,56.8,51.4,30.31,ENE,67,0.0,0.0,82,0.00,,,0.00,WUHU21623XXSP,2013-10-12 23:27:00,
2013-10-12 19:32:00,56.8,51.4,30.32,NE,45,3.6,3.6,82,0.00,,,0.00,WUHU21623XXSP,2013-10-12 23:32:00,
2013-10-12 19:37:00,56.8,51.4,30.32,WSW,247,3.1,3.6,82,0.00,,,0.00,WUHU21623XXSP,2013-10-12 23:37:00,
2013-10-12 19:42:00,56.8,51.4,30.32,ESE,112,2.5,3.1,82,0.00,,,0.00,WUHU21623XXSP,2013-10-12 23:42:00,
2013-10-12 19:47:00,56.7,51.2,30.32,NNW,337,0.0,2.5,82,0.00,,,0.00,WUHU21623XXSP,2013-10-12 23:47:00,
2013-10-12 19:52:00,56.8,51.4,30.32,SW,225,2.5,2.5,82,0.00,,,0.00,WUHU21623XXSP,2013-10-12 23:52:00,
2013-10-12 19:57:00,56.7,51.2,30.33,ENE,67,0.0,2.5,82,0.00,,,0.00,WUHU21623XXSP,2013-10-12 23:57:00,
2013-10-12 20:02:00,56.7,51.2,30.32,North,0,0.0,0.0,82,0.00,,,0.00,WUHU21623XXSP,2013-10-13 00:02:00,
2013-10-12 20:07:00,56.5,51.0,30.33,NE,45,0.0,0.0,82,0.00,,,0.00,WUHU21623XXSP,2013-10-13 00:07:00,
2013-10-12 20:12:00,56.5,51.0,30.33,ENE,67,0.0,0.0,82,0.00,,,0.00,WUHU21623XXSP,2013-10-13 00:12:00,
2013-10-12 20:17:00,56.5,51.0,30.33,South,180,0.0,0.0,82,0.00,,,0.00,WUHU21623XXSP,2013-10-13 00:17:00,
2013-10-12 20:22:00,56.5,51.0,30.33,ENE,67,0.0,0.0,82,0.00,,,0.00,WUHU21623XXSP,2013-10-13 00:22:00,
2013-10-12 20:27:00,56.5,51.0,30.33,SSW,202,0.0,0.0,82,0.00,,,0.00,WUHU21623XXSP,2013-10-13 00:27:00,
2013-10-12 20:32:00,56.5,51.0,30.33,ESE,112,0.0,0.0,82,0.00,,,0.00,WUHU21623XXSP,2013-10-13 00:32:00,
2013-10-12 20:37:00,56.5,51.0,30.33,East,90,0.0,0.0,82,0.00,,,0.00,WUHU21623XXSP,2013-10-13 00:37:00,
2013-10-12 20:42:00,56.5,51.0,30.33,South,180,0.0,1.6,82,0.00,,,0.00,WUHU21623XXSP,2013-10-13 00:42:00,
2013-10-12 20:47:00,56.3,50.8,30.34,NNE,22,0.0,1.6,82,0.00,,,0.00,WUHU21623XXSP,2013-10-13 00:47:00,
2013-10-12 20:52:00,56.3,50.8,30.34,North,0,2.0,2.0,82,0.00,,,0.00,WUHU21623XXSP,2013-10-13 00:52:00,
2013-10-12 20:57:00,56.3,50.8,30.33,East,90,0.0,2.0,82,0.00,,,0.00,WUHU21623XXSP,2013-10-13 00:57:00,
2013-10-12 21:02:00,56.1,50.6,30.34,NE,45,0.0,0.0,82,0.00,,,0.00,WUHU21623XXSP,2013-10-13 01:02:00,
2013-10-12 21:07:00,56.1,50.6,30.33,West,270,0.0,0.0,82,0.00,,,0.00,WUHU21623XXSP,2013-10-13 01:07:00,
2013-10-12 21:12:00,56.1,50.6,30.34,NNW,337,0.0,0.0,82,0.00,,,0.00,WUHU21623XXSP,2013-10-13 01:12:00,
2013-10-12 21:17:00,56.1,50.6,30.34,South,180,0.0,0.0,82,0.00,,,0.00,WUHU21623XXSP,2013-10-13 01:17:00,
2013-10-12 21:22:00,56.1,50.6,30.34,WNW,292,0.0,0.0,82,0.00,,,0.00,WUHU21623XXSP,2013-10-13 01:22:00,
2013-10-12 21:27:00,56.1,50.6,30.34,SE,135,0.0,0.0,82,0.00,,,0.00,WUHU21623XXSP,2013-10-13 01:27:00,
2013-10-12 21:32:00,56.1,50.6,30.34,South,180,0.0,0.0,82,0.00,,,0.00,WUHU21623XXSP,2013-10-13 01:32:00,
2013-10-12 21:37:00,56.1,50.6,30.34,NNE,22,0.0,0.0,82,0.00,,,0.00,WUHU21623XXSP,2013-10-13 01:37:00,
2013-10-12 21:42:00,56.1,50.6,30.34,SE,135,2.9,2.9,82,0.00,,,0.00,WUHU21623XXSP,2013-10-13 01:42:00,
2013-10-12 21:47:00,56.1,50.6,30.34,ESE,112,0.0,4.0,82,0.00,,,0.00,WUHU21623XXSP,2013-10-13 01:47:00,
2013-10-12 21:52:00,56.1,50.6,30.34,East,90,0.0,4.0,82,0.00,,,0.00,WUHU21623XXSP,2013-10-13 01:52:00,
2013-10-12 21:57:00,56.1,50.6,30.34,NNE,22,0.0,0.0,82,0.00,,,0.00,WUHU21623XXSP,2013-10-13 01:57:00,
2013-10-12 22:02:00,56.1,50.6,30.34,NNE,22,4.7,4.7,82,0.00,,,0.00,WUHU21623XXSP,2013-10-13 02:02:00,
2013-10-12 22:08:00,56.1,50.6,30.35,ESE,112,0.0,4.7,82,0.00,,,0.00,WUHU21623XXSP,2013-10-13 02:08:00,
2013-10-12 22:13:00,56.1,50.3,30.35,SE,135,0.0,0.0,81,0.00,,,0.00,WUHU21623XXSP,2013-10-13 02:13:00,
2013-10-12 22:18:00,55.9,50.1,30.34,East,90,0.0,0.0,81,0.00,,,0.00,WUHU21623XXSP,2013-10-13 02:18:00,
2013-10-12 22:23:00,55.9,50.1,30.35,West,270,0.0,0.0,81,0.00,,,0.00,WUHU21623XXSP,2013-10-13 02:23:00,
2013-10-12 22:28:00,55.9,50.1,30.34,SE,135,0.0,2.5,81,0.00,,,0.00,WUHU21623XXSP,2013-10-13 02:28:00,
2013-10-12 22:33:00,55.9,50.1,30.35,WSW,247,0.0,2.5,81,0.00,,,0.00,WUHU21623XXSP,2013-10-13 02:33:00,
2013-10-12 22:38:00,55.9,50.1,30.35,SSE,157,0.0,0.0,81,0.00,,,0.00,WUHU21623XXSP,2013-10-13 02:38:00,
2013-10-12 22:43:00,55.9,50.1,30.34,SW,225,0.0,0.0,81,0.00,,,0.00,WUHU21623XXSP,2013-10-13 02:43:00,
2013-10-12 22:48:00,55.9,50.1,30.35,NNE,22,0.0,1.6,81,0.00,,,0.00,WUHU21623XXSP,2013-10-13 02:48:00,
2013-10-12 22:53:00,55.9,50.1,30.35,East,90,0.0,1.6,81,0.00,,,0.00,WUHU21623XXSP,2013-10-13 02:53:00,
2013-10-12 22:58:00,55.9,49.8,30.34,SSE,157,0.0,0.0,80,0.00,,,0.00,WUHU21623XXSP,2013-10-13 02:58:00,
2013-10-12 23:03:00,55.8,49.6,30.34,NNE,22,0.0,0.0,80,0.00,,,0.00,WUHU21623XXSP,2013-10-13 03:03:00,
2013-10-12 23:08:00,55.9,49.8,30.34,East,90,0.0,0.0,80,0.00,,,0.00,WUHU21623XXSP,2013-10-13 03:08:00,
2013-10-12 23:13:00,55.8,49.6,30.34,NE,45,0.0,0.0,80,0.00,,,0.00,WUHU21623XXSP,2013-10-13 03:13:00,
2013-10-12 23:18:00,55.8,49.6,30.34,NE,45,0.0,0.0,80,0.00,,,0.00,WUHU21623XXSP,2013-10-13 03:18:00,
2013-10-12 23:23:00,55.6,49.5,30.33,NE,45,0.0,0.0,80,0.00,,,0.00,WUHU21623XXSP,2013-10-13 03:23:00,
2013-10-12 23:28:00,55.6,49.5,30.34,ENE,67,0.0,0.0,80,0.00,,,0.00,WUHU21623XXSP,2013-10-13 03:28:00,
2013-10-12 23:33:00,55.4,49.3,30.34,WSW,247,0.0,2.5,80,0.00,,,0.00,WUHU21623XXSP,2013-10-13 03:33:00,
2013-10-12 23:38:00,55.2,49.1,30.33,East,90,0.0,2.5,80,0.00,,,0.00,WUHU21623XXSP,2013-10-13 03:38:00,
2013-10-12 23:43:00,55.2,49.1,30.34,NE,45,0.0,0.0,80,0.00,,,0.00,WUHU21623XXSP,2013-10-13 03:43:00,
2013-10-12 23:48:00,55.2,49.1,30.34,North,0,0.0,0.0,80,0.00,,,0.00,WUHU21623XXSP,2013-10-13 03:48:00,
2013-10-12 23:53:00,55.2,49.1,30.33,NE,45,0.0,2.5,80,0.00,,,0.00,WUHU21623XXSP,2013-10-13 03:53:00,
2013-10-12 23:58:00,55.2,49.4,30.34,North,0,0.0,2.5,81,0.00,,,0.00,WUHU21623XXSP,2013-10-13 03:58:00,